Meteo Giornale » Osservazioni meteo Slovenia » Maribor-Slivnica

ore: 08:00 - Osservazioni Meteo Maribor-Slivnica
Lat. 46° 29' N Lon. 15° 41' E Alt. 264 metri s.l.m.

sereno Europe/Ljubljana

0 °C

Sereno

Temp. 24 Ore

-3 °C

11 °C

Nord

3.7 Km/h

Dew point -3 °C

Umidità 80 %

Visibilità  10 Km

Il sole sorge alle ore 06:49

Il sole tramonta alle ore 17:32

Data e Ora Cielo e Fenomeni T °C DP °C Um. % Pres. hPa Vis. km Vento km/h
Oggi h: 08:00 sereno Sereno 0 -3 80 1020 10 N 3.7
Oggi h: 07:30 sereno Sereno -2 -4 86 1020 10 N 7.4
Oggi h: 07:00 sereno Sereno -3 -5 86 1019 10 N/NO 7.4
Oggi h: 06:30 sereno Sereno -2 -5 79 1018 10 N 3.7
Oggi h: 06:00 sereno Sereno -2 -5 79 1019 10 N 3.7
Oggi h: 05:30 sereno Sereno -1 -4 80 1019 10 N 1.8
Oggi h: 05:00 sereno Sereno -1 -4 80 1019 10 N 5.5
Oggi h: 04:30 sereno Sereno -1 -4 80 1019 10 N 1.8
Oggi h: 04:00 sereno Sereno -0 -4 74 1019 10 SO 9.3
Oggi h: 03:30 sereno Sereno 2 -4 64 1019 10 S/SO 14.8
Oggi h: 03:00 sereno Sereno 0 -4 74 1019 10 S 11.1
Oggi h: 02:30 sereno Sereno -1 -4 80 1019 10 N 1.8
Oggi h: 02:00 sereno Sereno 1 -4 69 1020 10 N 3.7
Oggi h: 01:30 sereno Sereno 1 -4 69 1020 10 SO 7.4
Oggi h: 01:00 sereno Sereno 4 -5 51 1020 10 S 18.5
Oggi h: 00:30 sereno Sereno 4 -5 51 1020 10 S/SE 11.1
Oggi h: 00:00 sereno Sereno 4 -5 51 1021 10 S 9.3
Ieri h: 23:30 sereno Sereno 4 -5 51 1021 10 S 16.7
Ieri h: 23:00 sereno Sereno 4 -5 51 1021 10 S/SO 14.8
Ieri h: 22:30 sereno Sereno 5 -4 52 1021 10 S 14.8
Ieri h: 22:00 sereno Sereno 6 -4 48 1021 10 S/SO 13
Ieri h: 21:30 sereno Sereno 6 -4 48 1022 10 S 14.8
Ieri h: 21:00 sereno Sereno 6 -4 48 1022 10 S 11.1
Ieri h: 20:30 sereno Sereno 6 -4 48 1022 10 S/SO 11.1
Ieri h: 20:00 sereno Sereno 5 -3 56 1022 10 S/SO 9.3
Ieri h: 19:30 sereno Sereno 6 -4 48 1022 10 S 7.4
Ieri h: 19:00 sereno Sereno 6 -5 45 1022 10 S 7.4
Ieri h: 18:30 sereno Sereno 7 -5 42 1022 10 N 5.5
Ieri h: 18:00 sereno Sereno 8 -4 42 1022 10 S/SO 7.4
Ieri h: 17:00 sereno Sereno 9 -4 39 1023 10 S/SO 11.1
Ieri h: 16:30 sereno Sereno 9 -4 39 1023 10 S/SO 9.3
Ieri h: 15:30 sereno Sereno 10 -6 31 1023 10 S/SO 7.4
Ieri h: 14:30 sereno Sereno 10 -6 31 1023 10 S 7.4
Ieri h: 14:00 sereno Sereno 11 -6 29 1023 10 S/SE 13
Ieri h: 13:30 sereno Sereno 10 -7 29 1023 10 S/SE 13
Ieri h: 13:00 sereno Sereno 10 -7 29 1024 10 S 13
Ieri h: 12:30 sereno Sereno 10 -7 29 1024 10 S 9.3
Ieri h: 12:00 sereno Sereno 10 -6 31 1024 10 S/SO 13
Ieri h: 11:00 sereno Sereno 9 -7 31 1025 10 S 13
Ieri h: 10:30 sereno Sereno 8 -3 45 1025 10 S 9.3
Ieri h: 10:00 sereno Sereno 5 -1 65 1025 10 N 5.5
Ieri h: 09:30 sereno Sereno 4 -1 69 1025 10 N 1.8
Ieri h: 09:00 sereno Sereno 3 -2 69 1025 10 N 0
Ieri h: 08:30 sereno Sereno 1 -2 80 1025 10 N 1.8
Ieri h: 08:00 sereno Sereno -1 -3 86 1025 10 N 3.7